Time;durP1;ratioP1;P1;durP2;ratioP2;P2;SDS_P1;SDS_P2;PMS_P1;PMS_P2;Temp;Humidity;BMP_temperature;BMP_pressure;BME280_temperature;BME280_humidity;BME280_pressure;Samples;Min_cycle;Max_cycle;Signal;HPM_P1;HPM_P2
2022/08/13 00:01:15;;;;;;;2.80;2.60;;;24.00;85.90;;;;;;6156526;23;20437;-93
2022/08/13 00:03:42;;;;;;;3.63;3.33;;;24.00;85.80;;;;;;6156894;23;20391;-92
2022/08/13 00:06:10;;;;;;;3.77;3.30;;;24.00;86.00;;;;;;6156393;23;20429;-92
2022/08/13 00:08:38;;;;;;;3.23;2.90;;;24.00;86.20;;;;;;6156709;23;20762;-92
2022/08/13 00:11:07;;;;;;;4.83;3.30;;;24.00;86.60;;;;;;6157774;23;20418;-92
2022/08/13 00:13:34;;;;;;;4.30;3.80;;;24.00;86.90;;;;;;6157829;23;20451;-93
2022/08/13 00:16:01;;;;;;;5.23;3.90;;;24.00;87.20;;;;;;6160113;23;20390;-92
2022/08/13 00:18:29;;;;;;;4.07;3.70;;;24.00;87.80;;;;;;6157866;23;20457;-93
2022/08/13 00:20:59;;;;;;;5.97;4.23;;;24.00;88.50;;;;;;6158943;23;20410;-92
2022/08/13 00:23:28;;;;;;;4.63;3.97;;;24.00;89.10;;;;;;6161655;23;20395;-93
2022/08/13 00:25:58;;;;;;;6.60;4.10;;;24.00;89.80;;;;;;6169507;23;20412;-92
2022/08/13 00:28:28;;;;;;;5.60;5.10;;;24.00;90.20;;;;;;6156943;23;20469;-92
2022/08/13 00:30:54;;;;;;;6.70;5.20;;;24.00;90.50;;;;;;6156344;23;20415;-93
2022/08/13 00:33:22;;;;;;;6.77;5.70;;;24.00;90.70;;;;;;6156003;23;20394;-92
2022/08/13 00:35:51;;;;;;;6.00;5.40;;;24.00;91.10;;;;;;6156204;23;20413;-92
2022/08/13 00:38:21;;;;;;;5.43;4.93;;;24.00;91.40;;;;;;6156007;23;20379;-93
2022/08/13 00:40:52;;;;;;;6.97;5.20;;;24.00;91.50;;;;;;6157213;23;20415;-92
2022/08/13 00:43:19;;;;;;;6.60;6.00;;;24.00;91.70;;;;;;6159858;23;20366;-93
2022/08/13 00:45:45;;;;;;;5.53;5.03;;;24.00;91.70;;;;;;6157925;23;20465;-92
2022/08/13 00:50:58;;;;;;;8.83;5.83;;;24.00;91.70;;;;;;6159051;23;20776;-92
2022/08/13 00:53:25;;;;;;;6.70;6.00;;;23.90;91.80;;;;;;6157621;23;22387;-92
2022/08/13 00:55:55;;;;;;;6.10;5.50;;;23.90;91.90;;;;;;6158136;23;20519;-92
2022/08/13 00:58:22;;;;;;;6.80;6.10;;;23.90;92.00;;;;;;6157783;23;20387;-92
2022/08/13 01:00:56;;;;;;;8.83;6.10;;;23.90;92.10;;;;;;6158516;23;20418;-92
2022/08/13 01:03:22;;;;;;;6.70;6.00;;;23.80;92.30;;;;;;6158733;23;20707;-91
2022/08/13 01:05:49;;;;;;;8.07;6.47;;;23.90;92.40;;;;;;6158583;23;20439;-93
2022/08/13 01:08:17;;;;;;;6.50;5.83;;;23.80;92.50;;;;;;6158243;23;20432;-93
2022/08/13 01:10:44;;;;;;;8.03;6.60;;;23.80;92.70;;;;;;6160738;23;20943;-91
2022/08/13 01:13:11;;;;;;;8.10;5.60;;;23.80;92.80;;;;;;6159513;23;20730;-93
2022/08/13 01:15:42;;;;;;;7.87;7.07;;;23.80;92.90;;;;;;6162932;23;20423;-92
2022/08/13 01:18:13;;;;;;;10.13;6.90;;;23.70;93.10;;;;;;6161475;23;20408;-92
2022/08/13 01:20:48;;;;;;;6.67;5.97;;;23.70;93.20;;;;;;6155669;23;20450;-93
2022/08/13 01:23:14;;;;;;;7.60;5.40;;;23.70;93.40;;;;;;6155148;23;20472;-92
2022/08/13 01:25:42;;;;;;;9.00;7.27;;;23.70;93.60;;;;;;6158881;23;20424;-93
2022/08/13 01:28:08;;;;;;;8.47;7.37;;;23.70;93.70;;;;;;6158757;23;20407;-93
2022/08/13 01:30:34;;;;;;;11.30;7.53;;;23.60;93.80;;;;;;6158279;23;20423;-92
2022/08/13 01:33:04;;;;;;;11.20;7.97;;;23.60;94.00;;;;;;6158223;23;20164;-93
2022/08/13 01:35:30;;;;;;;7.80;6.40;;;23.60;94.20;;;;;;6157630;23;20437;-92
2022/08/13 01:37:57;;;;;;;9.63;8.13;;;23.60;94.30;;;;;;6157718;23;20418;-93
2022/08/13 01:40:24;;;;;;;7.70;6.87;;;23.60;94.40;;;;;;6157886;23;20452;-92
2022/08/13 01:42:51;;;;;;;8.20;6.83;;;23.50;94.50;;;;;;6157657;23;20947;-93
2022/08/13 01:45:18;;;;;;;7.90;6.87;;;23.60;94.60;;;;;;6160532;23;20414;-92
2022/08/13 01:50:30;;;;;;;8.93;8.03;;;23.50;94.90;;;;;;6160164;23;20424;-92
2022/08/13 01:53:04;;;;;;;8.37;7.17;;;23.50;95.10;;;;;;6159213;23;20390;-93
2022/08/13 01:55:56;;;;;;;10.30;8.37;;;23.50;95.20;;;;;;6157884;23;20459;-92
2022/08/13 01:58:25;;;;;;;9.13;7.50;;;23.50;95.40;;;;;;6153658;23;20425;-92
2022/08/13 02:00:59;;;;;;;9.87;6.87;;;23.50;95.50;;;;;;6166703;23;20759;-92
2022/08/13 02:03:25;;;;;;;9.73;8.70;;;23.40;95.60;;;;;;6159432;23;20393;-92
2022/08/13 02:05:51;;;;;;;9.77;8.77;;;23.40;95.80;;;;;;6157696;23;20493;-92
2022/08/13 02:08:23;;;;;;;10.97;7.93;;;23.40;96.00;;;;;;6157935;23;20370;-93
2022/08/13 02:10:54;;;;;;;8.60;7.20;;;23.40;96.10;;;;;;6157652;23;20419;-93
2022/08/13 02:13:29;;;;;;;10.77;8.63;;;23.40;96.20;;;;;;6158967;23;20422;-92
2022/08/13 02:15:55;;;;;;;10.00;7.77;;;23.30;96.30;;;;;;6157819;23;20465;-92
2022/08/13 02:18:24;;;;;;;9.97;8.10;;;23.30;96.60;;;;;;6157818;23;20386;-93
2022/08/13 02:20:51;;;;;;;9.80;8.00;;;23.30;96.70;;;;;;6158123;23;20891;-93
2022/08/13 02:23:20;;;;;;;9.53;8.33;;;23.30;96.90;;;;;;6159334;23;20375;-92
2022/08/13 02:25:47;;;;;;;11.20;8.57;;;23.30;97.00;;;;;;6158544;23;20398;-92
2022/08/13 02:28:14;;;;;;;10.03;7.87;;;23.20;97.10;;;;;;6160663;23;20467;-92
2022/08/13 02:30:41;;;;;;;11.10;8.73;;;23.20;97.10;;;;;;6159098;23;20406;-93
2022/08/13 02:33:07;;;;;;;13.47;9.27;;;23.20;97.20;;;;;;6160244;23;20383;-92
2022/08/13 02:35:35;;;;;;;14.83;9.20;;;23.20;97.40;;;;;;6167172;23;20426;-93
2022/08/13 02:38:02;;;;;;;11.30;8.77;;;23.20;97.60;;;;;;6166882;23;20393;-93
2022/08/13 02:43:50;;;;;;;13.03;9.00;;;23.10;97.90;;;;;;6170410;23;20734;-93
2022/08/13 02:46:18;;;;;;;14.97;10.17;;;23.10;98.20;;;;;;6156802;23;20449;-93
2022/08/13 02:48:44;;;;;;;11.93;8.00;;;23.10;98.40;;;;;;6156919;23;20398;-93
2022/08/13 02:51:11;;;;;;;14.63;10.20;;;23.00;98.60;;;;;;6156581;23;20468;-93
2022/08/13 02:53:39;;;;;;;11.67;9.67;;;23.00;98.90;;;;;;6156561;23;20192;-93
2022/08/13 02:56:08;;;;;;;13.00;9.77;;;23.00;99.00;;;;;;6158217;23;20389;-93
2022/08/13 02:58:40;;;;;;;13.00;9.17;;;23.00;99.30;;;;;;6156874;23;20476;-92
2022/08/13 03:01:10;;;;;;;11.63;9.27;;;23.00;99.50;;;;;;6157195;23;20420;-93
2022/08/13 03:03:36;;;;;;;11.03;9.43;;;23.00;99.70;;;;;;6157910;23;20392;-93
2022/08/13 03:06:02;;;;;;;15.23;10.77;;;23.00;99.80;;;;;;6156642;23;20464;-92
2022/08/13 03:08:28;;;;;;;14.30;9.80;;;23.00;99.90;;;;;;6156834;23;20889;-93
2022/08/13 03:10:55;;;;;;;11.97;10.73;;;23.00;99.90;;;;;;6157515;23;20413;-93
2022/08/13 03:13:28;;;;;;;13.00;10.00;;;22.90;99.90;;;;;;6157225;23;20476;-92
2022/08/13 03:15:56;;;;;;;13.67;10.63;;;22.90;99.90;;;;;;6156862;23;21501;-92
2022/08/13 03:18:25;;;;;;;11.60;9.07;;;22.90;99.90;;;;;;6157169;23;20914;-92
2022/08/13 03:20:51;;;;;;;13.10;10.07;;;22.90;99.90;;;;;;6158633;23;20500;-92
2022/08/13 03:23:17;;;;;;;11.70;9.43;;;22.90;99.90;;;;;;6157293;23;20381;-94
2022/08/13 03:25:44;;;;;;;14.50;10.20;;;22.90;99.90;;;;;;6159062;23;20562;-92
2022/08/13 03:28:10;;;;;;;13.80;9.50;;;22.90;99.90;;;;;;6157568;23;20765;-93
2022/08/13 03:30:36;;;;;;;12.70;10.57;;;22.90;99.90;;;;;;6157293;23;20505;-93
2022/08/13 03:33:07;;;;;;;12.00;9.77;;;22.90;99.90;;;;;;6160156;23;20386;-91
2022/08/13 03:35:33;;;;;;;12.53;9.50;;;22.90;99.90;;;;;;6157148;23;20453;-92
2022/08/13 03:37:59;;;;;;;13.60;10.10;;;22.90;99.90;;;;;;6159924;23;20377;-92
2022/08/13 03:41:00;;;;;;;14.17;10.20;;;22.90;99.90;;;;;;6159324;23;20472;-93
2022/08/13 03:43:12;;;;;;;12.17;10.27;;;22.90;99.90;;;;;;6158438;23;20155;-92
2022/08/13 03:45:38;;;;;;;12.23;9.77;;;22.80;99.90;;;;;;6156360;23;20440;-92
2022/08/13 03:48:04;;;;;;;13.80;10.77;;;22.80;99.90;;;;;;6157422;23;20385;-91
2022/08/13 03:50:30;;;;;;;15.20;10.50;;;22.80;99.90;;;;;;6157888;23;20219;-92
2022/08/13 03:53:04;;;;;;;15.60;11.03;;;22.80;99.90;;;;;;6158581;23;20396;-92
2022/08/13 03:55:30;;;;;;;12.70;10.53;;;22.80;99.90;;;;;;6159796;23;20804;-92
2022/08/13 03:57:57;;;;;;;12.80;9.60;;;22.80;99.90;;;;;;6164120;23;20704;-91
2022/08/13 04:00:28;;;;;;;11.87;10.50;;;22.80;99.90;;;;;;6154104;23;20741;-93
2022/08/13 04:02:54;;;;;;;15.53;11.60;;;22.80;99.90;;;;;;6154213;23;20425;-92
2022/08/13 04:05:20;;;;;;;18.60;9.70;;;22.80;99.90;;;;;;6153520;23;20428;-92
2022/08/13 04:07:51;;;;;;;13.87;9.97;;;22.80;99.90;;;;;;6129392;23;20404;-93
2022/08/13 04:10:17;;;;;;;14.07;10.50;;;22.80;99.90;;;;;;6130274;23;20186;-93
2022/08/13 04:12:43;;;;;;;14.10;10.90;;;22.80;99.90;;;;;;6131998;23;20397;-92
2022/08/13 04:15:09;;;;;;;12.93;9.93;;;22.80;99.90;;;;;;6160964;23;20508;-92
2022/08/13 04:17:36;;;;;;;12.80;9.30;;;22.70;99.90;;;;;;6160504;23;20673;-92
2022/08/13 04:20:09;;;;;;;19.63;11.77;;;22.70;99.90;;;;;;6135281;23;20416;-92
2022/08/13 04:22:37;;;;;;;13.47;9.97;;;22.60;99.90;;;;;;6135437;23;20484;-92
2022/08/13 04:25:04;;;;;;;14.40;10.80;;;22.40;99.90;;;;;;6138874;23;20431;-92
2022/08/13 04:27:32;;;;;;;14.30;9.90;;;22.40;99.90;;;;;;6133371;23;20385;-93
2022/08/13 04:29:58;;;;;;;19.27;11.87;;;22.40;99.90;;;;;;6132994;23;20425;-92
2022/08/13 04:32:24;;;;;;;15.03;10.67;;;22.40;99.90;;;;;;6158933;23;20463;-92
2022/08/13 04:34:50;;;;;;;14.20;10.13;;;22.40;99.90;;;;;;6133120;23;20498;-92
2022/08/13 04:37:16;;;;;;;12.00;10.03;;;22.40;99.90;;;;;;6133331;23;20163;-92
2022/08/13 04:39:43;;;;;;;14.67;10.13;;;22.30;99.90;;;;;;6133506;23;20186;-93
2022/08/13 04:42:09;;;;;;;16.40;11.17;;;22.30;99.90;;;;;;6134024;23;20385;-92
2022/08/13 04:44:36;;;;;;;17.27;11.70;;;22.30;99.90;;;;;;6136432;23;20420;-92
2022/08/13 04:47:02;;;;;;;14.00;10.63;;;22.40;99.90;;;;;;6135098;23;20945;-92
2022/08/13 04:49:28;;;;;;;13.30;9.73;;;22.40;99.90;;;;;;6132044;23;20409;-93
2022/08/13 04:51:53;;;;;;;13.03;9.47;;;22.40;99.90;;;;;;6132542;23;20883;-91
2022/08/13 04:54:19;;;;;;;16.23;10.10;;;22.40;99.90;;;;;;6133330;23;20218;-92
2022/08/13 04:56:46;;;;;;;14.47;11.07;;;22.40;99.90;;;;;;6138934;23;20234;-92
2022/08/13 04:59:12;;;;;;;12.80;10.23;;;22.40;99.90;;;;;;6136488;23;20397;-92
2022/08/13 05:01:39;;;;;;;15.03;11.43;;;22.40;99.90;;;;;;6131932;23;20762;-93
2022/08/13 05:04:05;;;;;;;14.90;10.87;;;22.40;99.90;;;;;;6133869;23;20487;-93
2022/08/13 05:06:31;;;;;;;12.13;10.13;;;22.40;99.90;;;;;;6144708;23;20428;-93
2022/08/13 05:09:02;;;;;;;14.70;10.30;;;22.40;99.90;;;;;;6160850;23;20417;-92
2022/08/13 05:11:29;;;;;;;15.43;11.10;;;22.50;99.90;;;;;;6158841;23;20382;-92
2022/08/13 05:13:55;;;;;;;13.47;9.93;;;22.50;99.90;;;;;;6160228;23;20942;-92
2022/08/13 05:16:21;;;;;;;13.63;10.47;;;22.60;99.90;;;;;;6160543;23;20389;-93
2022/08/13 05:18:52;;;;;;;14.77;11.03;;;22.60;99.90;;;;;;6162100;23;20396;-92
2022/08/13 05:21:20;;;;;;;13.70;11.00;;;22.60;99.90;;;;;;6160229;23;20306;-92
2022/08/13 05:23:46;;;;;;;12.60;10.47;;;22.70;99.90;;;;;;6160346;23;20398;-91
2022/08/13 05:26:12;;;;;;;14.20;10.97;;;22.70;99.90;;;;;;6159926;23;20413;-93
2022/08/13 05:28:38;;;;;;;17.13;11.33;;;22.70;99.90;;;;;;6167489;23;20938;-93
2022/08/13 05:31:04;;;;;;;16.33;11.40;;;22.80;99.90;;;;;;6157369;23;20453;-92
2022/08/13 05:33:32;;;;;;;12.37;9.57;;;22.80;99.90;;;;;;6157069;23;20175;-93
2022/08/13 05:36:03;;;;;;;13.50;9.93;;;22.80;99.90;;;;;;6156620;23;20440;-92
2022/08/13 05:38:30;;;;;;;13.37;10.27;;;22.90;99.90;;;;;;6156245;23;20405;-92
2022/08/13 05:40:59;;;;;;;14.20;11.00;;;22.90;99.90;;;;;;6155717;23;20725;-92
2022/08/13 05:43:27;;;;;;;14.30;10.77;;;22.90;99.90;;;;;;6156480;23;20762;-91
2022/08/13 05:45:58;;;;;;;15.20;10.97;;;23.00;99.90;;;;;;6157618;23;20405;-92
2022/08/13 05:48:28;;;;;;;13.50;10.97;;;23.00;99.90;;;;;;6158928;23;22291;-92
2022/08/13 05:50:59;;;;;;;16.60;10.70;;;23.00;99.90;;;;;;6161414;23;20408;-92
2022/08/13 05:53:26;;;;;;;13.80;9.93;;;23.00;99.90;;;;;;6159060;23;20726;-92
2022/08/13 05:55:56;;;;;;;13.97;9.87;;;23.00;99.90;;;;;;6161330;23;20409;-92
2022/08/13 05:58:22;;;;;;;11.97;10.20;;;23.10;99.90;;;;;;6174965;23;20447;-92
2022/08/13 06:03:33;;;;;;;15.40;11.53;;;23.10;99.90;;;;;;6158726;23;20434;-92
2022/08/13 06:06:04;;;;;;;13.50;10.43;;;23.20;99.90;;;;;;6157449;23;20787;-92
2022/08/13 06:08:34;;;;;;;16.17;11.53;;;23.20;99.90;;;;;;6157664;23;20720;-92
2022/08/13 06:11:11;;;;;;;16.93;10.13;;;23.20;99.90;;;;;;6157937;23;20469;-92
2022/08/13 06:13:41;;;;;;;15.93;12.17;;;23.20;99.90;;;;;;6158462;23;20432;-92
2022/08/13 06:16:13;;;;;;;13.03;10.10;;;23.30;99.90;;;;;;6158666;23;20409;-92
2022/08/13 06:18:46;;;;;;;13.20;11.10;;;23.30;99.90;;;;;;6159286;23;20440;-93
2022/08/13 06:21:13;;;;;;;14.10;10.83;;;23.30;99.90;;;;;;6160415;23;20433;-93
2022/08/13 06:23:42;;;;;;;17.93;14.67;;;23.40;99.90;;;;;;6158701;23;20863;-93
2022/08/13 06:26:10;;;;;;;13.53;10.87;;;23.40;99.90;;;;;;6159003;23;20830;-92
2022/08/13 06:28:36;;;;;;;15.07;11.63;;;23.40;99.90;;;;;;6165290;23;20389;-92
2022/08/13 06:31:08;;;;;;;13.33;10.50;;;23.40;99.90;;;;;;6159628;23;20541;-93
2022/08/13 06:33:36;;;;;;;13.97;10.27;;;23.40;99.90;;;;;;6156850;23;20393;-92
2022/08/13 06:36:18;;;;;;;15.63;11.20;;;23.50;99.90;;;;;;6156516;23;20912;-93
2022/08/13 06:38:51;;;;;;;14.40;10.63;;;23.50;99.90;;;;;;6157888;23;20785;-93
2022/08/13 06:41:19;;;;;;;12.70;10.20;;;23.50;99.90;;;;;;6157438;23;20402;-92
2022/08/13 06:43:48;;;;;;;15.30;10.73;;;23.60;99.90;;;;;;6158176;23;20397;-93
2022/08/13 06:46:17;;;;;;;14.90;10.83;;;23.60;99.90;;;;;;6157547;23;20417;-93
2022/08/13 06:48:43;;;;;;;14.30;11.13;;;23.60;99.90;;;;;;6157280;23;20396;-93
2022/08/13 06:51:11;;;;;;;15.57;11.47;;;23.60;99.90;;;;;;6157609;23;20421;-92
2022/08/13 06:53:41;;;;;;;14.50;10.87;;;23.60;99.90;;;;;;6163819;23;20429;-93
2022/08/13 06:56:14;;;;;;;14.90;11.43;;;23.70;99.90;;;;;;6157804;23;20860;-92
2022/08/13 06:58:44;;;;;;;13.53;10.63;;;23.70;99.90;;;;;;6157012;23;20523;-92
2022/08/13 07:01:10;;;;;;;15.07;10.67;;;23.70;99.90;;;;;;6157521;23;20789;-93
2022/08/13 07:03:40;;;;;;;17.33;11.60;;;23.80;99.90;;;;;;6157940;23;20389;-92
2022/08/13 07:06:14;;;;;;;16.67;10.50;;;23.80;99.90;;;;;;6159198;23;20488;-93
2022/08/13 07:08:40;;;;;;;17.57;11.83;;;23.90;99.90;;;;;;6157917;23;20476;-93
2022/08/13 07:11:24;;;;;;;14.20;10.40;;;23.90;99.90;;;;;;6160681;23;20420;-92
2022/08/13 07:13:56;;;;;;;13.20;10.27;;;24.00;99.90;;;;;;6155989;23;20445;-92
2022/08/13 07:16:24;;;;;;;14.87;11.07;;;24.00;99.90;;;;;;6156389;23;20378;-92
2022/08/13 07:18:51;;;;;;;14.83;10.80;;;24.10;99.90;;;;;;6157689;23;20406;-93
2022/08/13 07:21:19;;;;;;;12.63;10.03;;;24.10;99.90;;;;;;6156693;23;20843;-92
2022/08/13 07:23:47;;;;;;;16.17;11.10;;;24.20;99.90;;;;;;6156758;23;20441;-93
2022/08/13 07:26:13;;;;;;;15.13;11.77;;;24.20;99.90;;;;;;6156769;23;20430;-92
2022/08/13 07:28:40;;;;;;;15.53;10.80;;;24.30;99.90;;;;;;6156585;23;20407;-91
2022/08/13 07:31:08;;;;;;;11.50;9.90;;;24.30;99.90;;;;;;6158977;23;20438;-92
2022/08/13 07:33:36;;;;;;;16.60;11.47;;;24.30;99.90;;;;;;6154785;23;20433;-92
2022/08/13 07:36:04;;;;;;;15.63;10.53;;;24.40;99.90;;;;;;6154578;23;20443;-92
2022/08/13 07:38:31;;;;;;;17.33;10.27;;;24.50;99.90;;;;;;6154694;23;20491;-93
2022/08/13 07:40:59;;;;;;;12.40;10.63;;;24.50;99.90;;;;;;6155504;23;20411;-92
2022/08/13 07:43:26;;;;;;;16.73;10.30;;;24.60;99.90;;;;;;6157000;23;20407;-93
2022/08/13 07:46:10;;;;;;;13.90;10.63;;;24.70;99.90;;;;;;6157144;23;20444;-93
2022/08/13 07:48:37;;;;;;;13.40;10.80;;;24.70;99.90;;;;;;6157578;23;20402;-93
2022/08/13 07:51:05;;;;;;;13.20;10.03;;;24.80;99.90;;;;;;6156840;23;20412;-92
2022/08/13 07:53:35;;;;;;;14.07;11.23;;;24.80;99.90;;;;;;6154720;23;20396;-92
2022/08/13 07:56:03;;;;;;;13.30;10.00;;;24.90;99.90;;;;;;6156359;23;20788;-93
2022/08/13 07:58:33;;;;;;;13.03;9.93;;;24.90;99.90;;;;;;6156038;23;20435;-92
2022/08/13 08:00:59;;;;;;;12.77;10.37;;;24.90;99.90;;;;;;6158116;23;20413;-92
2022/08/13 08:03:30;;;;;;;13.77;10.57;;;25.00;99.90;;;;;;6158910;23;20707;-93
2022/08/13 08:05:58;;;;;;;14.60;10.87;;;25.00;99.90;;;;;;6156765;23;20454;-93
2022/08/13 08:08:28;;;;;;;12.80;9.70;;;25.10;99.90;;;;;;6164739;23;20392;-92
2022/08/13 08:10:54;;;;;;;13.33;10.20;;;25.20;99.90;;;;;;6157202;23;20420;-92
2022/08/13 08:13:20;;;;;;;12.90;9.50;;;25.20;99.90;;;;;;6154523;23;20388;-93
2022/08/13 08:15:46;;;;;;;12.50;9.53;;;25.20;99.90;;;;;;6153560;23;20409;-93
2022/08/13 08:18:13;;;;;;;10.90;9.17;;;25.30;99.90;;;;;;6154020;23;20432;-92
2022/08/13 08:20:42;;;;;;;18.43;10.57;;;25.40;99.90;;;;;;6155248;23;20407;-92
2022/08/13 08:23:10;;;;;;;13.47;10.73;;;25.50;99.90;;;;;;6156304;23;20385;-92
2022/08/13 08:25:38;;;;;;;12.80;9.73;;;25.50;99.90;;;;;;6157092;23;20444;-92
2022/08/13 08:28:04;;;;;;;15.90;10.03;;;25.60;99.90;;;;;;6156799;23;20392;-92
2022/08/13 08:30:30;;;;;;;14.17;9.97;;;25.70;99.90;;;;;;6156451;23;20893;-92
2022/08/13 08:32:56;;;;;;;13.47;11.40;;;25.80;99.90;;;;;;6159287;23;20701;-92
2022/08/13 08:35:23;;;;;;;14.57;9.97;;;25.80;99.90;;;;;;6157264;23;20791;-93
2022/08/13 08:43:32;;;;;;;12.63;9.20;;;26.10;99.90;;;;;;6158843;23;20383;-92
2022/08/13 08:45:59;;;;;;;14.90;10.30;;;26.20;99.90;;;;;;6157662;23;20416;-93
2022/08/13 08:48:29;;;;;;;13.13;9.10;;;26.20;99.90;;;;;;6159707;23;20389;-92
2022/08/13 08:50:56;;;;;;;13.33;9.93;;;26.30;99.90;;;;;;6164312;23;20414;-93
2022/08/13 08:53:23;;;;;;;11.87;10.00;;;26.40;99.90;;;;;;6162304;23;20381;-93
2022/08/13 08:55:53;;;;;;;10.93;9.20;;;26.50;99.90;;;;;;6157685;23;20409;-93
2022/08/13 08:58:20;;;;;;;12.27;9.93;;;26.60;99.90;;;;;;6156484;23;20417;-93
2022/08/13 09:00:47;;;;;;;11.23;9.50;;;26.60;99.90;;;;;;6158910;23;20393;-92
2022/08/13 09:03:18;;;;;;;11.60;9.80;;;26.60;99.90;;;;;;6158810;23;20466;-93
2022/08/13 09:05:46;;;;;;;12.77;9.70;;;26.70;99.90;;;;;;6157508;23;20433;-93
2022/08/13 09:08:18;;;;;;;12.20;10.07;;;26.70;99.90;;;;;;6156667;23;20385;-92
2022/08/13 09:10:48;;;;;;;17.07;10.13;;;26.80;99.90;;;;;;6157119;23;20405;-93
2022/08/13 09:13:19;;;;;;;12.73;10.07;;;26.80;99.90;;;;;;6156864;23;20472;-93
2022/08/13 09:15:48;;;;;;;10.20;8.43;;;26.90;99.90;;;;;;6158897;23;20525;-94
2022/08/13 09:18:17;;;;;;;13.50;9.57;;;26.90;99.90;;;;;;6163714;23;20373;-93
2022/08/13 09:20:43;;;;;;;14.30;10.67;;;26.90;99.90;;;;;;6158719;23;20439;-93
2022/08/13 09:23:14;;;;;;;10.40;9.00;;;27.00;99.90;;;;;;6158284;23;20381;-92
2022/08/13 09:25:48;;;;;;;13.73;9.87;;;27.00;99.90;;;;;;6159501;23;20406;-93
2022/08/13 09:28:18;;;;;;;14.97;10.10;;;27.00;99.90;;;;;;6157608;23;20420;-93
2022/08/13 09:30:45;;;;;;;13.30;10.43;;;27.10;99.90;;;;;;6157518;23;20409;-93
2022/08/13 09:33:12;;;;;;;13.90;9.13;;;27.10;99.90;;;;;;6158747;23;20397;-93
2022/08/13 09:35:39;;;;;;;15.60;10.43;;;27.10;99.90;;;;;;6159626;23;20444;-93
2022/08/13 09:38:06;;;;;;;11.80;8.53;;;27.20;99.90;;;;;;6159838;23;20369;-92
2022/08/13 09:40:36;;;;;;;11.87;9.80;;;27.20;99.90;;;;;;6157091;23;20818;-93
2022/08/13 09:43:10;;;;;;;14.57;9.53;;;27.30;99.80;;;;;;6156166;23;20381;-93
2022/08/13 09:45:38;;;;;;;12.00;9.33;;;27.30;99.90;;;;;;6156197;23;20416;-94
2022/08/13 09:48:08;;;;;;;10.90;9.60;;;27.40;99.40;;;;;;6155730;23;20386;-93
2022/08/13 09:50:34;;;;;;;14.00;10.70;;;27.50;99.40;;;;;;6156549;23;20503;-93
2022/08/13 09:52:59;;;;;;;10.30;9.30;;;27.50;99.10;;;;;;6156147;23;20421;-93
2022/08/13 09:55:25;;;;;;;10.77;9.60;;;27.50;99.10;;;;;;6157585;23;20781;-93
2022/08/13 09:57:59;;;;;;;11.30;8.97;;;27.60;99.00;;;;;;6158045;23;20206;-92
2022/08/13 10:00:27;;;;;;;10.50;8.57;;;27.70;98.80;;;;;;6159023;23;20215;-92
2022/08/13 10:02:56;;;;;;;11.63;8.80;;;27.70;98.70;;;;;;6174320;23;20396;-92
2022/08/13 10:05:25;;;;;;;11.93;8.67;;;27.70;98.20;;;;;;6157247;23;20423;-93
2022/08/13 10:07:52;;;;;;;9.70;8.27;;;27.80;97.80;;;;;;6132713;23;20401;-93
2022/08/13 10:10:18;;;;;;;9.97;7.70;;;27.80;97.60;;;;;;6133146;23;20409;-93
2022/08/13 10:12:44;;;;;;;9.67;8.00;;;27.80;97.20;;;;;;6132020;23;20389;-93
2022/08/13 10:15:12;;;;;;;8.40;7.50;;;27.80;96.80;;;;;;6154932;23;20934;-93
2022/08/13 10:17:56;;;;;;;8.47;7.50;;;27.90;96.20;;;;;;6155951;23;20160;-92
2022/08/13 10:20:26;;;;;;;7.83;6.73;;;27.90;96.50;;;;;;6157027;23;20404;-91
2022/08/13 10:22:55;;;;;;;8.47;7.47;;;28.00;96.50;;;;;;6131496;23;20443;-92
2022/08/13 10:25:22;;;;;;;9.33;7.90;;;28.00;96.10;;;;;;6131216;23;20509;-93
2022/08/13 10:27:49;;;;;;;10.03;7.13;;;28.10;95.90;;;;;;6131679;23;20802;-92
2022/08/13 10:30:15;;;;;;;9.10;7.27;;;28.10;95.70;;;;;;6134323;23;20445;-92
2022/08/13 10:32:41;;;;;;;8.90;7.00;;;28.20;95.40;;;;;;6143118;23;20396;-92
2022/08/13 10:35:09;;;;;;;10.20;7.87;;;28.20;95.50;;;;;;6158756;23;20529;-93
2022/08/13 10:37:43;;;;;;;7.83;6.70;;;28.30;95.10;;;;;;6132585;23;20155;-92
2022/08/13 10:40:09;;;;;;;10.43;8.10;;;28.30;95.20;;;;;;6160826;23;20413;-92
2022/08/13 10:42:35;;;;;;;8.67;7.60;;;28.30;94.90;;;;;;6158045;23;20730;-93
2022/08/13 10:45:00;;;;;;;7.53;6.73;;;28.30;95.10;;;;;;6133439;23;20430;-93
2022/08/13 10:47:26;;;;;;;9.67;8.13;;;28.30;94.40;;;;;;6132912;23;20216;-90
2022/08/13 10:49:52;;;;;;;9.73;7.47;;;28.30;94.40;;;;;;6133247;23;20229;-93
2022/08/13 10:52:19;;;;;;;9.37;6.47;;;28.40;94.00;;;;;;6133554;23;20472;-93
2022/08/13 10:54:46;;;;;;;10.20;7.90;;;28.40;94.10;;;;;;6133032;23;20208;-93
2022/08/13 10:57:13;;;;;;;9.07;7.10;;;28.50;93.80;;;;;;6141632;23;20419;-93
2022/08/13 10:59:43;;;;;;;8.30;7.00;;;28.50;94.00;;;;;;6132388;23;20419;-93
2022/08/13 11:02:10;;;;;;;10.13;7.60;;;28.50;93.90;;;;;;6132040;23;20404;-93
2022/08/13 11:04:36;;;;;;;8.00;6.47;;;28.60;93.90;;;;;;6131861;23;20422;-93
2022/08/13 11:07:03;;;;;;;10.03;8.00;;;28.60;93.90;;;;;;6148504;23;20444;-93
2022/08/13 11:09:29;;;;;;;9.03;7.40;;;28.70;93.10;;;;;;6161024;23;20474;-93
2022/08/13 11:11:57;;;;;;;9.07;7.80;;;28.70;93.10;;;;;;6158688;23;20407;-93
2022/08/13 11:14:24;;;;;;;11.90;7.00;;;28.80;92.90;;;;;;6156788;23;20457;-92
2022/08/13 11:19:17;;;;;;;8.00;6.60;;;28.80;93.10;;;;;;6159185;23;20475;-92
2022/08/13 11:21:46;;;;;;;8.50;7.53;;;28.90;93.20;;;;;;6157246;23;20193;-93
2022/08/13 11:24:12;;;;;;;8.70;7.47;;;28.90;92.90;;;;;;6158471;23;20388;-93
2022/08/13 11:26:39;;;;;;;7.67;6.70;;;28.90;92.60;;;;;;6159078;23;20393;-93
2022/08/13 11:29:05;;;;;;;8.00;7.00;;;28.90;92.70;;;;;;6158473;23;20773;-93
2022/08/13 11:31:31;;;;;;;9.30;7.10;;;29.00;92.70;;;;;;6168974;23;20412;-93
2022/08/13 11:33:57;;;;;;;8.67;7.17;;;29.00;92.20;;;;;;6161201;23;20435;-93
2022/08/13 11:36:23;;;;;;;10.93;7.40;;;29.00;91.90;;;;;;6156629;23;20427;-93
2022/08/13 11:38:48;;;;;;;8.60;5.97;;;29.00;92.20;;;;;;6157696;23;20165;-92
2022/08/13 11:41:14;;;;;;;7.70;6.60;;;29.00;91.60;;;;;;6156616;23;20241;-93
2022/08/13 11:43:40;;;;;;;8.10;6.00;;;29.00;91.90;;;;;;6156446;23;20164;-93
2022/08/13 11:46:06;;;;;;;8.40;6.43;;;29.00;91.90;;;;;;6156945;23;20408;-93
2022/08/13 11:48:32;;;;;;;8.73;6.50;;;29.00;91.80;;;;;;6157341;23;20388;-93
2022/08/13 11:50:58;;;;;;;9.93;6.30;;;29.00;91.90;;;;;;6156373;23;20186;-93
2022/08/13 11:53:24;;;;;;;7.03;5.53;;;29.00;91.80;;;;;;6156427;23;20183;-92
2022/08/13 11:55:51;;;;;;;6.70;6.10;;;29.00;91.60;;;;;;6157287;23;20526;-93
2022/08/13 11:58:16;;;;;;;7.27;6.57;;;29.00;91.60;;;;;;6158494;23;20474;-92
2022/08/13 12:00:42;;;;;;;6.93;6.23;;;29.00;91.70;;;;;;6168018;23;20522;-93
2022/08/13 12:03:09;;;;;;;7.00;6.30;;;29.00;91.40;;;;;;6156238;23;20162;-93
2022/08/13 12:05:35;;;;;;;7.47;6.40;;;29.00;91.10;;;;;;6155690;23;20962;-93
2022/08/13 12:08:02;;;;;;;6.83;6.13;;;29.10;91.00;;;;;;6131032;23;20846;-93
2022/08/13 12:10:29;;;;;;;6.17;5.60;;;29.10;90.70;;;;;;6130879;23;20897;-93
2022/08/13 12:12:55;;;;;;;6.30;5.17;;;29.10;90.20;;;;;;6131380;23;20384;-93
2022/08/13 12:15:20;;;;;;;7.00;6.40;;;29.10;90.60;;;;;;6131556;23;20448;-93
2022/08/13 12:17:47;;;;;;;8.70;6.00;;;29.10;90.70;;;;;;6131882;23;20396;-93
2022/08/13 12:20:19;;;;;;;6.40;5.80;;;29.10;90.40;;;;;;6131950;23;20186;-92
2022/08/13 12:22:45;;;;;;;7.87;6.00;;;29.10;90.30;;;;;;6133508;23;20422;-93
2022/08/13 12:25:11;;;;;;;8.30;6.87;;;29.10;90.50;;;;;;6136029;23;20422;-92
2022/08/13 12:27:39;;;;;;;8.80;7.90;;;29.10;90.60;;;;;;6133411;23;20388;-93
2022/08/13 12:30:06;;;;;;;10.70;8.00;;;29.10;91.50;;;;;;6132727;23;20426;-93
2022/08/13 12:32:32;;;;;;;7.80;7.10;;;29.10;91.90;;;;;;6133713;23;20387;-92
2022/08/13 12:34:58;;;;;;;10.97;8.10;;;29.00;92.40;;;;;;6139605;23;20456;-92
2022/08/13 12:37:23;;;;;;;9.30;8.00;;;28.90;92.50;;;;;;6134504;23;20623;-93
2022/08/13 12:39:54;;;;;;;8.53;7.17;;;28.80;92.80;;;;;;6131112;23;20451;-93
2022/08/13 12:42:21;;;;;;;7.97;7.23;;;28.80;93.00;;;;;;6133121;23;20162;-93
2022/08/13 12:44:46;;;;;;;8.87;7.30;;;28.70;93.00;;;;;;6132092;23;20494;-93
2022/08/13 12:47:12;;;;;;;9.13;6.67;;;28.60;93.30;;;;;;6130337;23;20856;-92
2022/08/13 12:49:38;;;;;;;8.00;6.90;;;28.50;93.40;;;;;;6131122;23;20177;-93
2022/08/13 12:52:03;;;;;;;7.23;6.53;;;28.30;93.10;;;;;;6131997;23;20260;-92
2022/08/13 12:54:29;;;;;;;7.83;7.03;;;28.30;93.20;;;;;;6132021;23;20208;-93
2022/08/13 12:56:55;;;;;;;9.37;6.67;;;28.20;93.60;;;;;;6134224;23;20412;-93
2022/08/13 12:59:21;;;;;;;9.87;6.37;;;28.10;93.50;;;;;;6133310;23;20224;-93